createdAt,value
2023-04-03T00:02:01.318Z,18.54
2023-04-03T00:07:03.504Z,18.56
2023-04-03T00:12:05.979Z,18.58
2023-04-03T00:17:08.643Z,18.52
2023-04-03T00:22:10.989Z,18.54
2023-04-03T00:27:13.247Z,18.52
2023-04-03T00:32:15.176Z,18.53
2023-04-03T00:37:17.118Z,18.51
2023-04-03T00:42:19.390Z,18.49
2023-04-03T00:47:21.449Z,18.55
2023-04-03T00:52:27.124Z,18.53
2023-04-03T00:57:31.966Z,18.52
2023-04-03T01:02:34.303Z,18.53
2023-04-03T01:07:38.355Z,18.52
2023-04-03T01:12:46.882Z,18.47
2023-04-03T01:17:54.326Z,18.46
2023-04-03T01:23:14.503Z,18.46
2023-04-03T01:28:21.881Z,18.48
2023-04-03T01:33:23.909Z,18.44
2023-04-03T01:38:26.729Z,18.43
2023-04-03T01:43:28.641Z,18.45
2023-04-03T01:48:30.827Z,18.44
2023-04-03T01:53:32.782Z,18.41
2023-04-03T01:58:34.819Z,18.41
2023-04-03T02:03:37.097Z,18.46
2023-04-03T02:08:39.275Z,18.41
2023-04-03T02:13:41.704Z,18.43
2023-04-03T02:18:43.898Z,18.42
2023-04-03T02:23:46.213Z,18.38
2023-04-03T02:28:48.275Z,18.41
2023-04-03T02:33:50.227Z,18.40
2023-04-03T02:38:52.187Z,18.40
2023-04-03T02:43:54.309Z,18.35
2023-04-03T02:48:56.545Z,18.38
2023-04-03T02:53:58.589Z,18.36
2023-04-03T02:59:00.870Z,18.38
2023-04-03T03:04:03.129Z,18.36
2023-04-03T03:09:05.815Z,18.39
2023-04-03T03:14:08.051Z,18.32
2023-04-03T03:19:10.498Z,18.36
2023-04-03T03:24:13.584Z,18.37
2023-04-03T03:29:15.571Z,18.33
2023-04-03T03:34:17.560Z,18.34
2023-04-03T03:39:19.632Z,18.34
2023-04-03T03:44:21.996Z,18.31
2023-04-03T03:49:24.223Z,18.29
2023-04-03T03:54:26.220Z,18.33
2023-04-03T03:59:28.339Z,18.33
2023-04-03T04:04:30.465Z,18.31
2023-04-03T04:09:32.402Z,18.27
2023-04-03T04:14:34.454Z,18.30
2023-04-03T04:19:36.608Z,18.25
2023-04-03T04:24:39.839Z,18.29
2023-04-03T04:29:41.899Z,18.32
2023-04-03T04:34:43.889Z,18.28
2023-04-03T04:39:46.180Z,18.25
2023-04-03T04:44:48.028Z,18.29
2023-04-03T04:49:50.142Z,18.28
2023-04-03T04:54:51.959Z,18.28
2023-04-03T04:59:53.914Z,18.29
2023-04-03T05:04:55.946Z,18.25
2023-04-03T05:09:58.054Z,18.25
2023-04-03T05:14:59.927Z,18.23
2023-04-03T05:20:01.928Z,18.26
2023-04-03T05:25:04.142Z,18.24
2023-04-03T05:30:06.952Z,18.25
2023-04-03T05:35:09.532Z,18.23
2023-04-03T05:40:11.742Z,18.21
2023-04-03T05:45:13.604Z,18.20
2023-04-03T05:50:15.892Z,18.22
2023-04-03T05:55:18.145Z,18.22
2023-04-03T06:00:20.340Z,18.20
2023-04-03T06:05:22.152Z,18.20
2023-04-03T06:10:24.420Z,18.12
2023-04-03T06:15:27.065Z,18.00
2023-04-03T06:20:29.014Z,18.05
2023-04-03T06:25:31.019Z,18.02
2023-04-03T06:30:33.158Z,18.00
2023-04-03T06:35:36.347Z,18.00
2023-04-03T06:40:38.728Z,18.01
2023-04-03T06:45:41.147Z,18.01
2023-04-03T06:50:43.358Z,18.10
2023-04-03T06:55:45.227Z,18.43
2023-04-03T07:00:48.461Z,18.60
2023-04-03T07:05:50.753Z,18.67
2023-04-03T07:10:52.824Z,18.65
2023-04-03T07:15:55.270Z,18.69
2023-04-03T07:20:57.373Z,18.76
2023-04-03T07:25:59.723Z,18.84
2023-04-03T07:31:08.066Z,18.98
2023-04-03T07:36:12.222Z,18.99
2023-04-03T07:41:19.152Z,18.96
2023-04-03T07:46:22.175Z,19.09
2023-04-03T07:51:25.891Z,19.00
2023-04-03T07:56:27.999Z,18.62
2023-04-03T08:01:30.410Z,18.43
2023-04-03T08:06:45.730Z,18.44
2023-04-03T08:11:48.225Z,18.35
2023-04-03T08:16:50.240Z,18.41
2023-04-03T08:21:52.428Z,18.37
2023-04-03T08:26:54.643Z,18.41
2023-04-03T08:31:56.762Z,18.38
2023-04-03T08:36:58.700Z,18.40
2023-04-03T08:42:08.482Z,18.29
2023-04-03T08:47:29.386Z,18.18
2023-04-03T08:52:43.370Z,18.21
2023-04-03T08:57:47.498Z,18.22
2023-04-03T09:02:52.459Z,18.24
2023-04-03T09:08:13.285Z,18.20
2023-04-03T09:13:28.145Z,18.20
2023-04-03T09:18:41.943Z,18.20
2023-04-03T09:23:47.864Z,18.17
2023-04-03T09:28:51.119Z,18.25
2023-04-03T09:34:03.619Z,18.22
2023-04-03T09:39:17.315Z,18.16
2023-04-03T09:44:26.715Z,18.18
2023-04-03T09:49:28.855Z,18.01
2023-04-03T09:54:41.146Z,18.08
2023-04-03T10:00:00.788Z,17.96
2023-04-03T10:10:21.633Z,17.93
2023-04-03T10:15:24.506Z,17.98
2023-04-03T10:20:29.437Z,18.27
2023-04-03T10:25:42.404Z,18.42
2023-04-03T10:30:44.866Z,18.51
2023-04-03T10:36:10.587Z,18.63
2023-04-03T10:41:40.677Z,18.66
2023-04-03T10:46:51.247Z,18.64
2023-04-03T10:52:06.223Z,18.68
2023-04-03T10:57:13.538Z,18.63
2023-04-03T11:02:45.359Z,18.62
2023-04-03T11:07:52.344Z,18.64
2023-04-03T11:13:03.151Z,18.62
2023-04-03T11:18:14.225Z,18.62
2023-04-03T11:23:32.893Z,18.68
2023-04-03T11:28:41.308Z,18.68
2023-04-03T11:33:49.784Z,18.61
2023-04-03T11:38:56.249Z,18.61
2023-04-03T11:44:04.074Z,18.57
2023-04-03T11:49:06.518Z,18.58
2023-04-03T11:54:46.041Z,18.55
2023-04-03T11:59:48.231Z,18.57
2023-04-03T12:05:26.713Z,18.54
2023-04-03T12:10:32.616Z,18.54
2023-04-03T12:15:38.515Z,18.55
2023-04-03T12:20:53.446Z,18.51
2023-04-03T12:26:01.921Z,18.53
2023-04-03T12:31:06.872Z,18.54
2023-04-03T12:36:16.771Z,18.54
2023-04-03T12:41:32.205Z,18.53
2023-04-03T12:46:45.947Z,18.50
2023-04-03T12:51:48.732Z,18.52
2023-04-03T12:56:51.771Z,18.49
2023-04-03T13:02:04.044Z,18.49
2023-04-03T13:07:06.241Z,18.49
2023-04-03T13:12:14.342Z,18.50
2023-04-03T13:17:17.998Z,18.49
2023-04-03T13:22:34.887Z,18.51
2023-04-03T13:27:37.565Z,18.49
2023-04-03T13:32:39.887Z,18.55
2023-04-03T13:37:56.635Z,18.45
2023-04-03T13:43:20.502Z,18.43
2023-04-03T13:48:24.807Z,18.45
2023-04-03T13:53:28.883Z,18.45
2023-04-03T13:58:34.176Z,18.46
2023-04-03T14:03:53.028Z,18.43
2023-04-03T14:08:55.471Z,18.44
2023-04-03T14:14:01.718Z,18.41
2023-04-03T14:19:04.348Z,18.45
2023-04-03T14:24:07.125Z,18.44
2023-04-03T14:29:11.825Z,18.46
2023-04-03T14:34:14.989Z,18.44
2023-04-03T14:39:20.068Z,18.45
2023-04-03T14:44:22.414Z,18.46
2023-04-03T14:49:29.267Z,18.44
2023-04-03T14:54:31.275Z,18.42
2023-04-03T14:59:34.032Z,18.40
2023-04-03T15:04:36.054Z,18.41
2023-04-03T15:09:38.540Z,18.39
2023-04-03T15:14:51.788Z,18.37
2023-04-03T15:19:55.835Z,18.36
2023-04-03T15:24:57.810Z,18.40
2023-04-03T15:30:00.364Z,18.39
2023-04-03T15:35:03.445Z,18.41
2023-04-03T15:40:07.126Z,18.43
2023-04-03T15:45:10.003Z,18.41
2023-04-03T15:50:12.110Z,18.37
2023-04-03T15:55:14.134Z,18.36
2023-04-03T16:00:16.712Z,18.37
2023-04-03T16:05:20.196Z,18.40
2023-04-03T16:10:22.667Z,18.35
2023-04-03T16:15:26.138Z,18.33
2023-04-03T16:20:28.954Z,18.38
2023-04-03T16:25:32.288Z,18.37
2023-04-03T16:30:34.954Z,18.37
2023-04-03T16:35:37.384Z,18.35
2023-04-03T16:40:39.769Z,18.35
2023-04-03T16:45:42.206Z,18.33
2023-04-03T16:50:49.285Z,18.35
2023-04-03T16:55:52.300Z,18.33
2023-04-03T17:00:55.110Z,18.31
2023-04-03T17:05:57.451Z,18.35
2023-04-03T17:10:59.908Z,18.33
2023-04-03T17:16:06.200Z,18.33
2023-04-03T17:21:08.905Z,18.35
2023-04-03T17:26:11.052Z,18.35
2023-04-03T17:31:13.250Z,18.31
2023-04-03T17:36:15.309Z,18.30
2023-04-03T17:41:17.666Z,18.30
2023-04-03T17:46:19.738Z,18.33
2023-04-03T17:51:23.754Z,18.31
2023-04-03T17:56:27.504Z,18.24
2023-04-03T18:01:31.762Z,18.36
2023-04-03T18:06:40.369Z,18.04
2023-04-03T18:11:43.681Z,18.00
2023-04-03T18:16:45.735Z,18.03
2023-04-03T18:21:48.270Z,17.94
2023-04-03T18:27:01.374Z,17.99
2023-04-03T18:32:06.721Z,18.08
2023-04-03T18:37:08.774Z,18.05
2023-04-03T18:42:15.513Z,18.32
2023-04-03T18:47:17.373Z,18.39
2023-04-03T18:52:20.824Z,18.07
2023-04-03T18:57:23.126Z,18.36
2023-04-03T19:02:26.340Z,18.36
2023-04-03T19:07:28.780Z,18.31
2023-04-03T19:12:30.944Z,18.36
2023-04-03T19:17:33.040Z,18.40
2023-04-03T19:22:35.361Z,18.33
2023-04-03T19:27:38.618Z,18.40
2023-04-03T19:32:41.142Z,18.35
2023-04-03T19:37:43.208Z,18.35
2023-04-03T19:42:45.436Z,18.35
2023-04-03T19:47:47.789Z,18.37
2023-04-03T19:52:49.782Z,18.36
2023-04-03T19:57:52.278Z,18.38
2023-04-03T20:02:54.817Z,18.37
2023-04-03T20:07:57.174Z,18.36
2023-04-03T20:12:59.207Z,18.28
2023-04-03T20:18:01.689Z,18.31
2023-04-03T20:23:03.774Z,18.06
2023-04-03T20:28:05.888Z,17.98
2023-04-03T20:33:08.111Z,18.12
2023-04-03T20:38:10.269Z,18.05
2023-04-03T20:43:12.990Z,18.01
2023-04-03T20:48:15.439Z,18.01
2023-04-03T20:53:19.449Z,18.12
2023-04-03T20:58:21.340Z,17.96
2023-04-03T21:03:25.561Z,18.11
2023-04-03T21:09:07.730Z,17.90
2023-04-03T21:14:48.647Z,17.66
2023-04-03T21:19:50.887Z,18.26
2023-04-03T21:24:53.154Z,18.40
2023-04-03T21:29:56.630Z,18.45
2023-04-03T21:34:58.714Z,18.45
2023-04-03T21:40:00.846Z,18.43
2023-04-03T21:45:03.068Z,18.43
2023-04-03T21:50:05.330Z,18.43
2023-04-03T21:55:09.026Z,18.40
2023-04-03T22:00:11.254Z,18.39
2023-04-03T22:05:13.255Z,18.41
2023-04-03T22:10:16.276Z,18.39
2023-04-03T22:15:18.728Z,18.41
2023-04-03T22:20:21.101Z,18.38
2023-04-03T22:25:22.915Z,18.36
2023-04-03T22:30:24.953Z,18.35
2023-04-03T22:35:27.967Z,18.32
2023-04-03T22:40:30.018Z,18.30
2023-04-03T22:45:32.482Z,18.29
2023-04-03T22:50:37.484Z,18.32
2023-04-03T22:55:39.702Z,18.34
2023-04-03T23:00:42.073Z,18.26
2023-04-03T23:05:44.449Z,18.27
2023-04-03T23:10:46.689Z,18.31
2023-04-03T23:15:56.005Z,18.31
2023-04-03T23:21:01.842Z,18.31
2023-04-03T23:26:03.914Z,18.31
2023-04-03T23:31:10.720Z,18.29
2023-04-03T23:36:13.767Z,18.29
2023-04-03T23:41:15.654Z,18.27
2023-04-03T23:46:18.562Z,18.27
2023-04-03T23:51:21.110Z,18.24
2023-04-03T23:56:23.285Z,18.24
